Cedar City, Missouri
Current Conditions -  °F | °C
As of 7:53 AM on Friday 24 Oct 2014 (Local Time) from KJEF Reporting Station
Haze Haze  
Wind Chill: 49°   Ceiling: 1400
Heat Index: 49°   Visibility: 5mi
Dew Point: 48°   Wind: 3mph
Humidity: 97%   Direction: 110°ESE
Pressure: 30.1"   Gusts: NA
Location:  38.6°N, 92.18°W
Report Text: KJEF 241253Z 11003KT 5SM BR OVC014 09/09 A3010 RMK AO2 SLP182 T00940089
Loading
Personal Weather Stations






























Interactive Weather Map
Tropical Storm Tracking
New forecast layout! Learn more

10-Day Weather Forecast

Advertisements
Track Severe Weather on mobile